Time;durP1;ratioP1;P1;durP2;ratioP2;P2;SDS_P1;SDS_P2;PMS_P1;PMS_P2;Temp;Humidity;BMP_temperature;BMP_pressure;BME280_temperature;BME280_humidity;BME280_pressure;Samples;Min_cycle;Max_cycle;Signal;HPM_P1;HPM_P2
2023/05/19 00:01:14;;;;;;;11.30;4.50;;;9.50;99.90;;;;;;5048833;28;20144;-62
2023/05/19 00:03:53;;;;;;;12.82;5.60;;;9.40;99.90;;;;;;5049238;28;20056;-63
2023/05/19 00:06:24;;;;;;;11.82;6.28;;;9.40;99.90;;;;;;5032140;28;20045;-62
2023/05/19 00:08:57;;;;;;;13.57;5.70;;;9.40;99.90;;;;;;5048883;28;20349;-62
2023/05/19 00:11:25;;;;;;;17.58;6.25;;;9.50;99.90;;;;;;5051124;28;20068;-63
2023/05/19 00:13:53;;;;;;;17.98;6.65;;;9.40;99.90;;;;;;5049432;28;20032;-62
2023/05/19 00:16:19;;;;;;;9.93;5.20;;;9.40;99.90;;;;;;5033008;28;20041;-61
2023/05/19 00:18:47;;;;;;;16.42;6.13;;;9.40;99.90;;;;;;5049663;28;20047;-62
2023/05/19 00:21:14;;;;;;;11.32;5.35;;;9.40;99.90;;;;;;5048708;28;20197;-62
2023/05/19 00:23:41;;;;;;;15.25;6.40;;;9.30;99.90;;;;;;5026281;28;20489;-61
2023/05/19 00:26:07;;;;;;;16.42;6.70;;;9.40;99.90;;;;;;5047719;28;20040;-61
2023/05/19 00:28:33;;;;;;;15.73;6.90;;;9.30;99.90;;;;;;5046511;28;20408;-62
2023/05/19 00:30:59;;;;;;;8.32;4.65;;;9.30;99.90;;;;;;5045007;28;20045;-62
2023/05/19 00:33:25;;;;;;;10.40;5.00;;;9.30;99.90;;;;;;5032466;28;20044;-62
2023/05/19 00:35:54;;;;;;;13.50;5.40;;;9.30;99.90;;;;;;5049293;28;20408;-63
2023/05/19 00:38:20;;;;;;;11.02;5.45;;;9.30;99.90;;;;;;5033301;28;20147;-62
2023/05/19 00:40:46;;;;;;;16.73;6.13;;;9.30;99.90;;;;;;5049124;28;20111;-62
2023/05/19 00:43:12;;;;;;;14.48;5.05;;;9.30;99.90;;;;;;5032547;28;20033;-61
2023/05/19 00:45:37;;;;;;;13.95;5.68;;;9.30;99.90;;;;;;5048966;28;20029;-63
2023/05/19 00:48:03;;;;;;;9.05;5.40;;;9.30;99.90;;;;;;5048841;28;20076;-62
2023/05/19 00:50:29;;;;;;;12.77;6.55;;;9.30;99.90;;;;;;5049554;28;20053;-62
2023/05/19 00:52:55;;;;;;;10.10;4.75;;;9.30;99.90;;;;;;5048403;28;20051;-62
2023/05/19 00:55:23;;;;;;;11.70;5.22;;;9.20;99.90;;;;;;5032223;28;20068;-62
2023/05/19 00:57:50;;;;;;;9.73;4.85;;;9.20;99.90;;;;;;5048722;28;20041;-63
2023/05/19 01:00:19;;;;;;;13.45;5.53;;;9.20;99.90;;;;;;5048930;28;20048;-62
2023/05/19 01:02:45;;;;;;;10.63;5.13;;;9.30;99.90;;;;;;5031908;28;20128;-62
2023/05/19 01:05:12;;;;;;;11.80;5.00;;;9.20;99.90;;;;;;5048625;28;20124;-62
2023/05/19 01:07:38;;;;;;;10.02;4.25;;;9.20;99.90;;;;;;5032145;28;20412;-62
2023/05/19 01:10:05;;;;;;;9.70;4.53;;;9.20;99.90;;;;;;5049088;28;20066;-62
2023/05/19 01:12:31;;;;;;;11.27;5.13;;;9.20;99.90;;;;;;4999619;28;20049;-62
2023/05/19 01:14:57;;;;;;;8.63;4.53;;;9.20;99.90;;;;;;5048674;28;20040;-62
2023/05/19 01:17:34;;;;;;;10.52;5.78;;;9.20;99.90;;;;;;5048326;28;20063;-61
2023/05/19 01:20:03;;;;;;;16.73;5.93;;;9.10;99.90;;;;;;5028519;28;20551;-61
2023/05/19 01:22:48;;;;;;;9.35;4.88;;;9.10;99.90;;;;;;5044271;28;20044;-62
2023/05/19 01:25:41;;;;;;;12.63;5.55;;;9.00;99.90;;;;;;5038644;28;20099;-62
2023/05/19 01:28:30;;;;;;;10.40;5.30;;;9.00;99.90;;;;;;5025632;28;20037;-62
2023/05/19 01:30:58;;;;;;;11.75;4.38;;;9.00;99.90;;;;;;5048509;28;20040;-62
2023/05/19 01:33:25;;;;;;;11.55;5.30;;;9.00;99.90;;;;;;5048129;28;20127;-61
2023/05/19 01:35:54;;;;;;;10.88;5.88;;;9.00;99.90;;;;;;5048135;28;20076;-62
2023/05/19 01:38:20;;;;;;;11.40;5.22;;;9.00;99.90;;;;;;5047775;28;20044;-62
2023/05/19 01:40:48;;;;;;;12.05;5.53;;;8.90;99.90;;;;;;5048300;28;20397;-61
2023/05/19 01:43:19;;;;;;;15.77;5.70;;;8.90;99.90;;;;;;5032043;28;20080;-62
2023/05/19 01:45:46;;;;;;;16.23;5.97;;;8.90;99.90;;;;;;5031833;28;20439;-62
2023/05/19 01:48:12;;;;;;;14.13;6.43;;;8.90;99.90;;;;;;5047990;28;20048;-62
2023/05/19 01:50:39;;;;;;;11.52;5.30;;;8.80;99.90;;;;;;5048123;28;20068;-62
2023/05/19 01:53:05;;;;;;;12.45;6.35;;;8.80;99.90;;;;;;5031331;28;20396;-62
2023/05/19 01:55:31;;;;;;;12.27;5.63;;;8.90;99.90;;;;;;5048642;28;20041;-62
2023/05/19 01:58:10;;;;;;;11.57;4.82;;;8.90;99.90;;;;;;5049244;28;20048;-62
2023/05/19 02:00:41;;;;;;;16.30;5.20;;;8.90;99.90;;;;;;5031788;28;20037;-62
2023/05/19 02:03:19;;;;;;;11.60;5.63;;;8.90;99.90;;;;;;5031529;28;20332;-62
2023/05/19 02:05:54;;;;;;;17.02;6.30;;;9.00;99.90;;;;;;5049776;28;20033;-62
2023/05/19 02:08:31;;;;;;;15.98;5.38;;;9.00;99.90;;;;;;5031085;28;20222;-62
2023/05/19 02:11:18;;;;;;;10.18;4.97;;;9.00;99.90;;;;;;5047846;28;20106;-62
2023/05/19 02:13:48;;;;;;;11.35;5.28;;;9.00;99.90;;;;;;5047896;28;20337;-62
2023/05/19 02:16:16;;;;;;;11.73;5.20;;;9.00;99.90;;;;;;5048184;28;20045;-62
2023/05/19 02:18:46;;;;;;;18.30;6.43;;;9.00;99.90;;;;;;5031071;28;20044;-62
2023/05/19 02:21:12;;;;;;;18.23;6.78;;;9.00;99.90;;;;;;5047809;28;20105;-62
2023/05/19 02:23:41;;;;;;;15.07;5.85;;;8.90;99.90;;;;;;5047939;28;20041;-63
2023/05/19 02:26:07;;;;;;;17.58;7.47;;;8.90;99.90;;;;;;5047534;28;20112;-62
2023/05/19 02:28:36;;;;;;;11.85;5.28;;;8.90;99.90;;;;;;5047310;28;20120;-62
2023/05/19 02:31:04;;;;;;;10.52;4.90;;;8.90;99.90;;;;;;5047834;28;20076;-62
2023/05/19 02:33:30;;;;;;;11.90;5.55;;;8.90;99.90;;;;;;5047614;28;20094;-62
2023/05/19 02:35:56;;;;;;;12.38;4.65;;;8.90;99.90;;;;;;5047966;28;20045;-62
2023/05/19 02:38:22;;;;;;;15.50;6.35;;;8.90;99.90;;;;;;5031289;28;20399;-62
2023/05/19 02:40:51;;;;;;;15.40;5.53;;;8.90;99.90;;;;;;5028474;28;20041;-62
2023/05/19 02:43:17;;;;;;;19.15;5.78;;;8.90;99.90;;;;;;5011306;28;20049;-61
2023/05/19 02:45:43;;;;;;;13.38;6.60;;;8.90;99.90;;;;;;5064416;28;20048;-61
2023/05/19 02:48:08;;;;;;;10.30;5.00;;;8.80;99.90;;;;;;5048119;28;20040;-61
2023/05/19 02:50:34;;;;;;;14.77;6.20;;;8.90;99.90;;;;;;5033008;28;20393;-62
2023/05/19 02:53:01;;;;;;;21.42;5.45;;;8.90;99.90;;;;;;5064796;28;20423;-62
2023/05/19 02:55:27;;;;;;;15.45;5.45;;;8.80;99.90;;;;;;5031711;28;20121;-62
2023/05/19 02:57:53;;;;;;;11.85;5.20;;;8.80;99.90;;;;;;5033349;28;20352;-62
2023/05/19 03:00:19;;;;;;;11.13;5.45;;;8.80;99.90;;;;;;5051374;28;20074;-63
2023/05/19 03:02:44;;;;;;;13.80;5.28;;;8.80;99.90;;;;;;5034415;28;20047;-61
2023/05/19 03:05:10;;;;;;;13.80;5.03;;;8.80;99.90;;;;;;5051474;28;20561;-61
2023/05/19 03:07:36;;;;;;;10.27;4.93;;;8.80;99.90;;;;;;5051253;28;20095;-62
2023/05/19 03:10:02;;;;;;;9.90;4.85;;;8.80;99.90;;;;;;5034607;28;20532;-62
2023/05/19 03:12:29;;;;;;;9.43;4.80;;;8.80;99.90;;;;;;5050675;28;20048;-61
2023/05/19 03:14:55;;;;;;;14.45;5.75;;;8.80;99.90;;;;;;5046776;28;20044;-62
2023/05/19 03:17:20;;;;;;;15.10;6.50;;;8.80;99.90;;;;;;5034271;28;20047;-62
2023/05/19 03:19:46;;;;;;;9.65;4.90;;;8.80;99.90;;;;;;5050441;28;20365;-62
2023/05/19 03:22:15;;;;;;;13.43;5.43;;;8.70;99.90;;;;;;5050479;28;20118;-63
2023/05/19 03:24:40;;;;;;;13.77;5.45;;;8.70;99.90;;;;;;5050682;28;20051;-62
2023/05/19 03:27:06;;;;;;;21.45;6.22;;;8.80;99.90;;;;;;5052300;28;20032;-61
2023/05/19 03:29:38;;;;;;;20.00;5.95;;;8.80;99.90;;;;;;5050474;28;20459;-62
2023/05/19 03:32:07;;;;;;;11.80;4.90;;;8.80;99.90;;;;;;5016671;28;20057;-62
2023/05/19 03:34:34;;;;;;;10.85;4.78;;;8.80;99.90;;;;;;5034282;28;20037;-62
2023/05/19 03:37:00;;;;;;;10.85;4.90;;;8.80;99.90;;;;;;5033878;28;20059;-62
2023/05/19 03:39:25;;;;;;;12.13;4.85;;;8.80;99.90;;;;;;5050561;28;20045;-62
2023/05/19 03:41:55;;;;;;;11.00;4.85;;;8.80;99.90;;;;;;5034117;28;20053;-62
2023/05/19 03:44:23;;;;;;;17.77;5.55;;;8.90;99.90;;;;;;5050819;28;20554;-62
2023/05/19 03:46:49;;;;;;;12.02;4.85;;;8.90;99.90;;;;;;5050081;28;20049;-61
2023/05/19 03:49:15;;;;;;;16.38;6.00;;;8.90;99.90;;;;;;5034116;28;20629;-62
2023/05/19 03:51:41;;;;;;;14.70;5.88;;;8.90;99.90;;;;;;5033840;28;20040;-62
2023/05/19 03:54:10;;;;;;;13.75;5.20;;;8.90;99.90;;;;;;5050638;28;20052;-62
2023/05/19 03:56:45;;;;;;;21.17;6.47;;;8.80;99.90;;;;;;5048723;28;20067;-62
2023/05/19 03:59:11;;;;;;;15.10;4.88;;;8.80;99.90;;;;;;5050276;28;20037;-62
2023/05/19 04:01:36;;;;;;;12.13;4.75;;;8.80;99.90;;;;;;5049733;28;20491;-62
2023/05/19 04:04:02;;;;;;;14.80;5.20;;;8.80;99.90;;;;;;5032901;28;20084;-63
2023/05/19 04:06:28;;;;;;;14.63;5.18;;;8.80;99.90;;;;;;5051179;28;20049;-62
2023/05/19 04:08:54;;;;;;;14.25;5.45;;;8.80;99.90;;;;;;5051116;28;20460;-61
2023/05/19 04:11:20;;;;;;;25.10;6.45;;;8.90;99.90;;;;;;5049892;28;20051;-61
2023/05/19 04:13:46;;;;;;;12.82;4.68;;;8.90;99.90;;;;;;5049838;28;20427;-61
2023/05/19 04:16:15;;;;;;;13.07;5.10;;;8.90;99.90;;;;;;5049912;28;20212;-62
2023/05/19 04:18:41;;;;;;;15.45;6.78;;;8.80;99.90;;;;;;5033449;28;20094;-62
2023/05/19 04:21:07;;;;;;;23.35;6.55;;;8.90;99.90;;;;;;5049298;28;20446;-62
2023/05/19 04:23:33;;;;;;;16.58;6.55;;;8.90;99.90;;;;;;5016588;28;20187;-62
2023/05/19 04:26:00;;;;;;;18.95;6.25;;;9.00;99.90;;;;;;5033071;28;20544;-61
2023/05/19 04:28:26;;;;;;;16.75;6.28;;;9.00;99.90;;;;;;5049538;28;20116;-61
2023/05/19 04:30:52;;;;;;;11.90;5.45;;;9.00;99.90;;;;;;5049420;28;20473;-61
2023/05/19 04:33:20;;;;;;;14.73;6.47;;;9.10;99.90;;;;;;5050810;28;20039;-62
2023/05/19 04:35:46;;;;;;;14.30;6.30;;;9.10;99.90;;;;;;5049325;28;20040;-62
2023/05/19 04:38:12;;;;;;;21.05;6.35;;;9.10;99.90;;;;;;5049144;28;20106;-62
2023/05/19 04:40:41;;;;;;;18.35;7.32;;;9.20;99.90;;;;;;5048967;28;20045;-64
2023/05/19 04:43:08;;;;;;;19.65;7.00;;;9.20;99.90;;;;;;5049110;28;20044;-62
2023/05/19 04:45:36;;;;;;;17.27;6.25;;;9.20;99.90;;;;;;5011804;28;20037;-65
2023/05/19 04:48:02;;;;;;;13.77;5.40;;;9.30;99.90;;;;;;5029282;28;20068;-65
2023/05/19 04:50:29;;;;;;;18.38;6.75;;;9.30;99.90;;;;;;5046792;28;20124;-65
2023/05/19 04:52:57;;;;;;;14.75;7.25;;;9.30;99.90;;;;;;5025255;28;20080;-67
2023/05/19 04:55:23;;;;;;;17.20;5.82;;;9.30;99.90;;;;;;5056290;28;20527;-66
2023/05/19 04:57:49;;;;;;;18.75;7.72;;;9.30;99.90;;;;;;5046037;28;20053;-65
2023/05/19 05:00:15;;;;;;;13.63;5.15;;;9.40;99.90;;;;;;5046221;28;20827;-66
2023/05/19 05:02:42;;;;;;;18.13;6.22;;;9.40;99.90;;;;;;5028083;28;20111;-65
2023/05/19 05:05:08;;;;;;;13.02;5.13;;;9.40;99.90;;;;;;5050112;28;20491;-65
2023/05/19 05:07:34;;;;;;;14.88;6.15;;;9.50;99.90;;;;;;5042151;28;20044;-65
2023/05/19 05:10:00;;;;;;;17.05;6.30;;;9.50;99.90;;;;;;5028992;28;20110;-66
2023/05/19 05:12:26;;;;;;;17.17;6.57;;;9.50;99.90;;;;;;5039457;28;20045;-66
2023/05/19 05:14:52;;;;;;;16.98;5.72;;;9.60;99.90;;;;;;5030864;28;20048;-65
2023/05/19 05:17:19;;;;;;;15.25;5.57;;;9.60;99.90;;;;;;5046480;28;20047;-65
2023/05/19 05:19:45;;;;;;;12.57;5.03;;;9.70;99.90;;;;;;5047016;28;20045;-65
2023/05/19 05:22:11;;;;;;;15.70;5.82;;;9.70;99.90;;;;;;5026847;28;20094;-65
2023/05/19 05:24:37;;;;;;;16.45;6.82;;;9.80;99.90;;;;;;5027591;28;20037;-68
2023/05/19 05:27:04;;;;;;;18.38;6.20;;;9.80;99.90;;;;;;5047210;28;20118;-65
2023/05/19 05:29:30;;;;;;;12.98;6.00;;;9.90;99.90;;;;;;5042519;28;20080;-65
2023/05/19 05:31:56;;;;;;;15.80;6.18;;;10.00;99.90;;;;;;5041533;28;20080;-65
2023/05/19 05:34:21;;;;;;;14.25;6.10;;;10.10;99.90;;;;;;5040703;28;20046;-65
2023/05/19 05:36:47;;;;;;;15.38;6.65;;;10.10;99.90;;;;;;5013416;28;20037;-65
2023/05/19 05:39:13;;;;;;;14.25;6.57;;;10.20;99.90;;;;;;5044949;28;20045;-66
2023/05/19 05:41:39;;;;;;;14.68;6.93;;;10.30;99.90;;;;;;5038816;28;20037;-66
2023/05/19 05:44:04;;;;;;;13.43;6.00;;;10.40;99.90;;;;;;5029119;28;20505;-64
2023/05/19 05:46:33;;;;;;;17.80;5.72;;;10.50;99.90;;;;;;5038111;28;20043;-65
2023/05/19 05:48:59;;;;;;;17.23;5.60;;;10.50;99.90;;;;;;5017442;28;20048;-65
2023/05/19 05:51:25;;;;;;;12.00;5.97;;;10.60;99.90;;;;;;5034261;28;20045;-65
2023/05/19 05:53:53;;;;;;;16.33;5.65;;;10.70;99.90;;;;;;5023182;28;20044;-65
2023/05/19 05:56:19;;;;;;;14.05;6.07;;;10.80;99.90;;;;;;5042800;28;20052;-65
2023/05/19 05:58:45;;;;;;;14.77;6.13;;;10.90;99.90;;;;;;5040269;28;20041;-65
2023/05/19 06:01:11;;;;;;;15.90;5.80;;;11.00;99.90;;;;;;5039244;28;20082;-65
2023/05/19 06:03:39;;;;;;;16.65;5.82;;;11.20;99.90;;;;;;5034233;28;20084;-64
2023/05/19 06:06:05;;;;;;;13.15;5.18;;;11.30;99.90;;;;;;5043674;28;20045;-65
2023/05/19 06:08:31;;;;;;;13.73;5.95;;;11.30;99.90;;;;;;5040294;28;20060;-65
2023/05/19 06:10:57;;;;;;;14.77;6.18;;;11.40;99.90;;;;;;5049253;28;20068;-66
2023/05/19 06:13:24;;;;;;;11.38;5.55;;;11.60;99.90;;;;;;5034767;28;20033;-65
2023/05/19 06:15:51;;;;;;;11.98;5.20;;;11.60;99.90;;;;;;5045218;28;20048;-68
2023/05/19 06:18:17;;;;;;;15.40;5.88;;;11.70;99.90;;;;;;5038681;28;20049;-65
2023/05/19 06:20:43;;;;;;;12.27;5.20;;;11.70;99.90;;;;;;5038424;28;20036;-65
2023/05/19 06:23:11;;;;;;;15.90;5.07;;;11.80;99.90;;;;;;5029155;28;20194;-65
2023/05/19 06:25:37;;;;;;;14.60;5.97;;;11.80;99.90;;;;;;5039992;28;20045;-65
2023/05/19 06:28:03;;;;;;;16.25;5.30;;;11.90;99.90;;;;;;5031052;28;20032;-65
2023/05/19 07:11:56;;;;;;;10.65;4.75;;;13.40;99.90;;;;;;5057587;28;20037;-64
2023/05/19 07:14:22;;;;;;;14.93;4.72;;;13.50;99.90;;;;;;5047982;28;20044;-66
2023/05/19 07:16:48;;;;;;;13.63;4.25;;;13.60;99.90;;;;;;5036974;28;20535;-65
2023/05/19 07:19:13;;;;;;;11.18;4.68;;;13.70;99.90;;;;;;5061312;28;20041;-64
2023/05/19 07:21:41;;;;;;;9.27;4.75;;;13.80;99.90;;;;;;5014577;28;20104;-65
2023/05/19 07:24:07;;;;;;;8.73;4.95;;;13.90;99.90;;;;;;5048277;28;20052;-65
2023/05/19 07:26:32;;;;;;;17.15;6.63;;;13.90;99.90;;;;;;5045689;28;20039;-68
2023/05/19 07:28:58;;;;;;;8.57;4.20;;;14.00;99.90;;;;;;5056786;28;20043;-65
2023/05/19 07:31:27;;;;;;;9.13;4.40;;;14.10;99.90;;;;;;5041588;28;20041;-64
2023/05/19 07:33:56;;;;;;;11.95;3.95;;;14.20;99.90;;;;;;5067648;28;20120;-65
2023/05/19 07:36:22;;;;;;;9.15;3.70;;;14.30;99.90;;;;;;5042131;28;20446;-64
2023/05/19 07:38:47;;;;;;;8.93;3.60;;;14.40;99.90;;;;;;5032565;28;20354;-65
2023/05/19 07:41:13;;;;;;;10.77;3.58;;;14.50;99.90;;;;;;5034289;28;20041;-63
2023/05/19 07:43:39;;;;;;;7.95;3.45;;;14.50;99.90;;;;;;5048151;28;20133;-65
2023/05/19 07:46:05;;;;;;;9.10;3.38;;;14.60;99.90;;;;;;5029754;28;20040;-65
2023/05/19 07:48:31;;;;;;;11.93;3.30;;;14.60;99.90;;;;;;5049875;28;20045;-64
2023/05/19 07:50:57;;;;;;;8.93;3.50;;;14.60;99.90;;;;;;5048540;28;20602;-62
2023/05/19 07:53:22;;;;;;;10.40;3.30;;;14.70;99.90;;;;;;5033963;28;20502;-64
2023/05/19 07:55:49;;;;;;;11.35;3.00;;;14.60;99.90;;;;;;5049744;28;20125;-65
2023/05/19 07:58:15;;;;;;;6.43;2.83;;;14.70;99.90;;;;;;5039345;28;20040;-64
2023/05/19 08:00:44;;;;;;;9.40;3.70;;;14.70;99.90;;;;;;5065958;28;20032;-64
2023/05/19 08:03:10;;;;;;;12.70;4.15;;;14.80;99.90;;;;;;5060580;28;20051;-63
2023/05/19 08:05:37;;;;;;;9.30;3.70;;;14.90;99.90;;;;;;5049535;28;20045;-67
2023/05/19 08:08:05;;;;;;;8.65;4.00;;;15.00;99.90;;;;;;5028361;28;20064;-66
2023/05/19 08:10:31;;;;;;;9.50;3.50;;;15.00;99.90;;;;;;5031926;28;20048;-62
2023/05/19 08:12:57;;;;;;;7.25;3.30;;;15.10;99.90;;;;;;5062966;28;20036;-66
2023/05/19 08:15:26;;;;;;;10.98;5.07;;;15.30;99.90;;;;;;5017336;28;20172;-64
2023/05/19 08:17:52;;;;;;;9.82;3.25;;;15.40;99.90;;;;;;5040464;28;20488;-65
2023/05/19 08:20:18;;;;;;;8.25;3.20;;;15.40;99.90;;;;;;5047972;28;20048;-64
2023/05/19 08:22:43;;;;;;;11.25;3.58;;;15.50;99.90;;;;;;5050723;28;20101;-64
2023/05/19 08:25:10;;;;;;;9.32;2.92;;;15.60;99.90;;;;;;5050652;28;20044;-66
2023/05/19 08:27:36;;;;;;;10.95;3.38;;;15.70;99.80;;;;;;5052300;28;20473;-63
2023/05/19 08:30:02;;;;;;;8.05;3.20;;;15.80;99.10;;;;;;5046024;28;20315;-66
2023/05/19 08:32:27;;;;;;;9.02;3.17;;;15.80;99.50;;;;;;5043422;28;20041;-65
2023/05/19 08:34:53;;;;;;;8.25;3.20;;;16.00;99.50;;;;;;5029891;28;20528;-64
2023/05/19 08:37:22;;;;;;;7.78;2.90;;;16.00;99.30;;;;;;5043201;28;20044;-65
2023/05/19 08:39:47;;;;;;;10.70;3.63;;;16.10;98.90;;;;;;5044715;28;20041;-64
2023/05/19 08:42:17;;;;;;;8.60;3.33;;;16.10;99.00;;;;;;5046152;28;20566;-64
2023/05/19 08:44:43;;;;;;;8.45;3.10;;;16.20;98.80;;;;;;5032000;28;20461;-64
2023/05/19 08:47:13;;;;;;;7.55;2.72;;;16.30;98.20;;;;;;5024785;28;20040;-64
2023/05/19 08:49:54;;;;;;;8.20;3.25;;;16.40;99.10;;;;;;5022434;28;20432;-68
2023/05/19 08:53:14;;;;;;;10.93;3.40;;;16.50;98.60;;;;;;5040816;28;20049;-64
2023/05/19 08:56:02;;;;;;;8.50;3.40;;;16.70;98.40;;;;;;5031044;28;20040;-66
2023/05/19 08:58:32;;;;;;;7.68;3.20;;;16.90;97.70;;;;;;5026678;28;20079;-65
2023/05/19 09:01:00;;;;;;;9.80;2.88;;;17.00;98.50;;;;;;5033410;28;20055;-63
2023/05/19 09:03:29;;;;;;;6.78;3.00;;;17.00;97.90;;;;;;5047863;28;20067;-66
2023/05/19 09:05:55;;;;;;;10.45;4.05;;;17.10;97.60;;;;;;5041773;28;20048;-64
2023/05/19 09:08:21;;;;;;;6.95;3.25;;;17.10;97.40;;;;;;5044093;28;20044;-64
2023/05/19 09:10:47;;;;;;;9.93;3.65;;;17.20;97.00;;;;;;5024117;28;21091;-64
2023/05/19 09:13:15;;;;;;;7.30;3.03;;;17.20;96.70;;;;;;5042337;28;20048;-67
2023/05/19 09:15:43;;;;;;;11.15;3.42;;;17.10;96.70;;;;;;5039253;28;20636;-64
2023/05/19 09:18:11;;;;;;;9.70;3.63;;;17.10;96.60;;;;;;5043740;28;20036;-63
2023/05/19 09:20:41;;;;;;;9.27;4.20;;;17.20;97.40;;;;;;5023897;28;20196;-65
2023/05/19 09:23:15;;;;;;;8.70;3.47;;;17.30;96.60;;;;;;5023769;28;20525;-65
2023/05/19 09:25:48;;;;;;;;;;;17.40;96.80;;;;;;5043944;28;20230;-62
2023/05/19 09:28:14;;;;;;;10.63;4.57;;;17.50;96.30;;;;;;5058215;28;20019;-66
2023/05/19 09:30:46;;;;;;;10.57;4.25;;;17.50;96.90;;;;;;5061389;28;20437;-65
2023/05/19 09:33:18;;;;;;;10.40;4.30;;;17.50;96.40;;;;;;5045089;28;20521;-66
2023/05/19 09:35:47;;;;;;;8.18;4.22;;;17.50;96.50;;;;;;5058052;28;20574;-62
2023/05/19 09:38:17;;;;;;;10.05;4.55;;;17.50;96.50;;;;;;5025245;28;20051;-62
2023/05/19 09:40:43;;;;;;;9.82;4.47;;;17.50;96.90;;;;;;5028909;28;20078;-68
2023/05/19 09:43:09;;;;;;;10.20;4.38;;;17.80;96.70;;;;;;5041629;28;20040;-68
2023/05/19 09:45:35;;;;;;;12.05;4.90;;;17.90;97.00;;;;;;5068320;28;20126;-64
2023/05/19 09:48:05;;;;;;;8.85;4.18;;;18.10;97.00;;;;;;5060839;28;20067;-64
2023/05/19 09:50:31;;;;;;;14.07;4.70;;;18.20;96.50;;;;;;5071560;28;20369;-63
2023/05/19 09:53:00;;;;;;;8.70;4.07;;;18.20;96.00;;;;;;5050231;28;20079;-63
2023/05/19 09:55:28;;;;;;;9.93;4.50;;;18.40;96.30;;;;;;5070612;28;20047;-63
2023/05/19 09:57:59;;;;;;;8.52;4.43;;;18.20;95.40;;;;;;5053790;28;20054;-65
2023/05/19 10:00:26;;;;;;;8.38;4.45;;;17.90;94.70;;;;;;5054345;28;20044;-65
2023/05/19 10:02:54;;;;;;;11.98;5.07;;;17.90;95.90;;;;;;5072331;28;20080;-65
2023/05/19 10:05:20;;;;;;;9.00;4.30;;;17.80;95.80;;;;;;5051162;28;20407;-65
2023/05/19 10:07:51;;;;;;;9.60;4.22;;;17.80;95.70;;;;;;5072305;28;20037;-64
2023/05/19 10:10:21;;;;;;;9.27;4.00;;;17.70;95.50;;;;;;5067822;28;20060;-67
2023/05/19 10:12:47;;;;;;;7.65;3.90;;;17.70;95.40;;;;;;5059102;28;20098;-63
2023/05/19 10:15:18;;;;;;;11.20;4.70;;;17.80;95.30;;;;;;5037771;28;20051;-65
2023/05/19 10:17:45;;;;;;;8.13;4.63;;;17.90;95.10;;;;;;5031590;28;20044;-63
2023/05/19 10:20:15;;;;;;;7.70;3.83;;;18.00;94.60;;;;;;5062510;28;20098;-63
2023/05/19 10:22:45;;;;;;;10.40;5.00;;;18.10;94.00;;;;;;5042111;28;20083;-63
2023/05/19 10:25:17;;;;;;;9.35;4.30;;;18.20;94.60;;;;;;5042743;28;20044;-65
2023/05/19 10:28:06;;;;;;;12.15;5.38;;;18.40;94.30;;;;;;5031633;28;20037;-64
2023/05/19 10:30:40;;;;;;;10.65;5.40;;;18.40;92.50;;;;;;5033361;28;20036;-64
2023/05/19 10:33:10;;;;;;;6.50;3.70;;;18.30;92.10;;;;;;5047574;28;20036;-66
2023/05/19 10:35:53;;;;;;;8.48;4.60;;;18.40;93.30;;;;;;5030916;28;20048;-63
2023/05/19 10:38:45;;;;;;;7.20;3.97;;;18.70;93.20;;;;;;5044759;28;20118;-66
2023/05/19 10:41:25;;;;;;;9.45;4.13;;;18.70;92.00;;;;;;5038125;28;20051;-66
2023/05/19 10:44:42;;;;;;;11.80;4.85;;;18.90;92.90;;;;;;5042014;28;20032;-63
2023/05/19 10:47:10;;;;;;;7.55;3.95;;;19.10;91.90;;;;;;5076235;22;20051;-59
2023/05/19 10:49:36;;;;;;;7.30;3.45;;;19.10;91.30;;;;;;5095683;28;20044;-59
2023/05/19 10:52:06;;;;;;;6.88;3.67;;;19.20;92.00;;;;;;5111146;28;20122;-60
2023/05/19 10:54:42;;;;;;;9.80;3.65;;;19.20;91.80;;;;;;5111936;28;20051;-59
2023/05/19 10:57:12;;;;;;;8.10;3.95;;;19.40;92.50;;;;;;5103368;28;20036;-61
2023/05/19 10:59:38;;;;;;;10.02;4.13;;;19.60;91.60;;;;;;5091353;28;20048;-60
2023/05/19 11:02:07;;;;;;;10.80;3.92;;;19.70;92.60;;;;;;5088902;28;20048;-60
2023/05/19 11:04:46;;;;;;;7.57;3.47;;;19.60;91.40;;;;;;5111736;28;20169;-59
2023/05/19 11:07:20;;;;;;;6.88;3.35;;;19.40;91.40;;;;;;5082102;28;20047;-59
2023/05/19 11:09:52;;;;;;;5.95;3.65;;;19.40;92.20;;;;;;5093764;28;20079;-59
2023/05/19 11:12:22;;;;;;;7.15;3.60;;;19.40;91.70;;;;;;5098543;28;20090;-58
2023/05/19 11:14:53;;;;;;;9.30;3.72;;;19.40;91.50;;;;;;5090999;28;20055;-60
2023/05/19 11:17:22;;;;;;;6.55;3.60;;;19.30;91.70;;;;;;5111959;28;20078;-60
2023/05/19 11:19:56;;;;;;;8.15;3.53;;;19.50;91.90;;;;;;5111655;28;20448;-59
2023/05/19 11:22:24;;;;;;;9.05;3.42;;;19.60;91.60;;;;;;5111795;28;20051;-60
2023/05/19 11:24:53;;;;;;;9.48;3.70;;;19.80;91.60;;;;;;5111845;28;20043;-61
2023/05/19 11:27:27;;;;;;;7.82;3.50;;;20.00;91.00;;;;;;5093083;28;20127;-60
2023/05/19 11:29:54;;;;;;;;;;;20.00;91.20;;;;;;5076627;28;20448;-60
2023/05/19 11:32:21;;;;;;;6.75;3.35;;;20.00;90.30;;;;;;5111399;28;20374;-60
2023/05/19 11:34:48;;;;;;;8.75;3.25;;;20.00;90.90;;;;;;5110245;28;20978;-60
2023/05/19 11:37:17;;;;;;;10.27;3.72;;;19.90;90.70;;;;;;5111220;28;20504;-60
2023/05/19 11:39:46;;;;;;;5.05;2.80;;;19.90;90.10;;;;;;5109366;28;20082;-60
2023/05/19 11:42:12;;;;;;;9.32;3.53;;;19.90;90.40;;;;;;5111043;28;20044;-60
2023/05/19 11:44:39;;;;;;;11.15;3.58;;;20.10;90.20;;;;;;5110916;28;20061;-60
2023/05/19 11:47:06;;;;;;;10.77;3.70;;;20.10;90.10;;;;;;5098844;28;20073;-60
2023/05/19 11:49:32;;;;;;;8.10;3.25;;;20.20;88.80;;;;;;5081999;28;20036;-60
2023/05/19 11:52:02;;;;;;;7.25;3.20;;;20.30;89.60;;;;;;5106776;28;20050;-60
2023/05/19 11:54:33;;;;;;;9.73;3.72;;;20.50;88.90;;;;;;5077303;27;20040;-59
2023/05/19 11:57:01;;;;;;;9.98;3.97;;;20.60;89.60;;;;;;5095605;27;20044;-60
2023/05/19 11:59:34;;;;;;;7.82;3.53;;;20.60;87.70;;;;;;5125023;27;20053;-60
2023/05/19 12:02:16;;;;;;;8.57;3.65;;;20.60;86.70;;;;;;5110916;28;20075;-60
2023/05/19 12:04:45;;;;;;;6.38;3.38;;;20.40;87.00;;;;;;5110671;28;20098;-60
2023/05/19 12:07:12;;;;;;;9.98;3.38;;;20.40;87.90;;;;;;5109805;28;20058;-61
2023/05/19 12:09:41;;;;;;;7.88;3.20;;;20.50;86.60;;;;;;5081270;28;20035;-61
2023/05/19 12:12:07;;;;;;;12.75;3.65;;;20.40;88.60;;;;;;5122324;27;20050;-61
2023/05/19 12:14:33;;;;;;;9.25;3.88;;;20.40;88.00;;;;;;5131503;27;20084;-61
2023/05/19 12:17:08;;;;;;;7.57;3.63;;;20.50;88.60;;;;;;5081223;28;20651;-60
2023/05/19 12:19:34;;;;;;;10.73;4.15;;;20.60;88.50;;;;;;5108171;28;20490;-61
2023/05/19 12:22:05;;;;;;;10.35;4.20;;;20.70;87.50;;;;;;5092180;28;20044;-60
2023/05/19 12:24:33;;;;;;;12.68;3.78;;;20.70;89.00;;;;;;5110262;28;20139;-61
2023/05/19 12:27:22;;;;;;;8.48;3.83;;;20.90;88.10;;;;;;5091852;28;20054;-61
2023/05/19 12:29:51;;;;;;;8.50;3.85;;;20.90;88.30;;;;;;5091815;28;20051;-59
2023/05/19 12:32:17;;;;;;;5.50;3.40;;;21.00;89.90;;;;;;5085508;28;20055;-61
2023/05/19 12:34:43;;;;;;;11.57;4.50;;;21.00;88.10;;;;;;5123521;27;20046;-60
2023/05/19 12:37:10;;;;;;;10.23;4.15;;;20.90;86.80;;;;;;5109849;28;20472;-60
2023/05/19 12:39:36;;;;;;;7.05;3.33;;;20.90;88.70;;;;;;5091646;28;20501;-60
2023/05/19 12:42:08;;;;;;;10.82;4.07;;;20.90;87.10;;;;;;5091413;28;20051;-60
2023/05/19 12:44:46;;;;;;;10.60;4.80;;;20.80;86.50;;;;;;5091997;28;20043;-61
2023/05/19 12:47:14;;;;;;;11.90;4.30;;;20.60;88.00;;;;;;5091202;28;20346;-61
2023/05/19 12:50:08;;;;;;;9.27;3.83;;;20.80;89.80;;;;;;5109932;28;20044;-61
2023/05/19 12:52:40;;;;;;;9.95;4.45;;;20.90;88.80;;;;;;5109556;28;20040;-61
2023/05/19 12:55:08;;;;;;;14.00;3.95;;;20.90;87.50;;;;;;5109939;28;20154;-59
2023/05/19 12:57:35;;;;;;;10.13;4.10;;;20.90;87.60;;;;;;5108489;28;20070;-60
2023/05/19 13:00:11;;;;;;;8.73;4.10;;;20.90;87.10;;;;;;5088886;28;20040;-60
2023/05/19 13:02:54;;;;;;;10.13;4.30;;;20.90;87.60;;;;;;5104183;27;20043;-61
2023/05/19 13:05:20;;;;;;;9.35;4.43;;;21.00;87.60;;;;;;5102993;27;20078;-60
2023/05/19 13:08:01;;;;;;;10.85;4.15;;;21.00;87.10;;;;;;5102781;28;20039;-59
2023/05/19 13:10:28;;;;;;;8.70;4.28;;;20.90;87.30;;;;;;5073982;28;20066;-60
2023/05/19 13:12:55;;;;;;;10.02;3.60;;;21.10;86.00;;;;;;5107897;28;20397;-60
2023/05/19 13:15:26;;;;;;;10.02;4.13;;;21.30;87.10;;;;;;5084728;28;20134;-60
2023/05/19 13:17:53;;;;;;;16.10;4.78;;;21.60;87.20;;;;;;5094062;27;20043;-61
2023/05/19 13:20:19;;;;;;;11.25;3.92;;;21.50;86.00;;;;;;5106363;28;20118;-59
2023/05/19 13:22:49;;;;;;;8.27;3.50;;;21.50;86.30;;;;;;5108808;28;20047;-58
2023/05/19 13:25:15;;;;;;;11.45;3.92;;;21.20;85.80;;;;;;5094413;28;20040;-60
2023/05/19 13:27:44;;;;;;;8.73;4.15;;;21.20;86.60;;;;;;5053825;28;20121;-59
2023/05/19 13:30:11;;;;;;;10.77;3.90;;;21.10;86.80;;;;;;5065052;28;20097;-61
2023/05/19 13:32:37;;;;;;;8.45;4.35;;;21.00;86.80;;;;;;5109584;28;20081;-60
2023/05/19 13:35:03;;;;;;;10.02;3.63;;;20.90;87.30;;;;;;5079958;28;20036;-60